sensor_id;sensor_type;location;lat;lon;timestamp;pressure;altitude;pressure_sealevel;temperature;humidity
47524;BME280;33253;42.144;25.884;2023-01-27T00:02:23;99728.22;;;4.82;100.00
47524;BME280;33253;42.144;25.884;2023-01-27T00:04:48;99775.44;;;5.07;100.00
47524;BME280;33253;42.144;25.884;2023-01-27T00:07:14;99774.13;;;4.97;100.00
47524;BME280;33253;42.144;25.884;2023-01-27T00:09:39;99786.63;;;4.91;100.00
47524;BME280;33253;42.144;25.884;2023-01-27T00:12:10;99778.28;;;4.77;100.00
47524;BME280;33253;42.144;25.884;2023-01-27T00:15:00;99787.47;;;4.73;100.00
47524;BME280;33253;42.144;25.884;2023-01-27T00:17:25;99782.78;;;4.64;100.00
47524;BME280;33253;42.144;25.884;2023-01-27T00:19:51;99787.06;;;4.47;100.00
47524;BME280;33253;42.144;25.884;2023-01-27T00:22:16;99794.13;;;4.35;100.00
47524;BME280;33253;42.144;25.884;2023-01-27T00:25:00;99807.13;;;4.23;100.00
47524;BME280;33253;42.144;25.884;2023-01-27T00:27:26;99750.41;;;3.63;100.00
47524;BME280;33253;42.144;25.884;2023-01-27T00:29:51;99784.63;;;3.83;100.00
47524;BME280;33253;42.144;25.884;2023-01-27T00:32:18;99777.59;;;3.79;100.00
47524;BME280;33253;42.144;25.884;2023-01-27T00:35:02;99769.06;;;3.78;100.00
47524;BME280;33253;42.144;25.884;2023-01-27T00:37:29;99727.97;;;3.57;100.00
47524;BME280;33253;42.144;25.884;2023-01-27T00:39:54;99780.00;;;3.76;100.00
47524;BME280;33253;42.144;25.884;2023-01-27T00:42:20;99783.75;;;3.82;100.00
47524;BME280;33253;42.144;25.884;2023-01-27T00:44:45;99780.31;;;3.82;100.00
47524;BME280;33253;42.144;25.884;2023-01-27T00:47:30;99765.31;;;3.88;100.00
47524;BME280;33253;42.144;25.884;2023-01-27T00:49:56;99751.13;;;3.93;100.00
47524;BME280;33253;42.144;25.884;2023-01-27T00:52:21;99724.94;;;3.97;100.00
47524;BME280;33253;42.144;25.884;2023-01-27T00:54:47;99719.34;;;4.04;100.00
47524;BME280;33253;42.144;25.884;2023-01-27T00:57:12;99711.59;;;4.03;100.00
47524;BME280;33253;42.144;25.884;2023-01-27T00:59:37;99723.16;;;4.13;100.00
47524;BME280;33253;42.144;25.884;2023-01-27T01:02:03;99712.88;;;4.11;100.00
47524;BME280;33253;42.144;25.884;2023-01-27T01:04:28;99735.66;;;4.25;100.00
47524;BME280;33253;42.144;25.884;2023-01-27T01:06:54;99734.72;;;4.23;100.00
47524;BME280;33253;42.144;25.884;2023-01-27T01:09:19;99724.28;;;4.18;100.00
47524;BME280;33253;42.144;25.884;2023-01-27T01:11:44;99735.47;;;4.20;100.00
47524;BME280;33253;42.144;25.884;2023-01-27T01:14:10;99695.09;;;3.96;100.00
47524;BME280;33253;42.144;25.884;2023-01-27T01:16:35;99731.78;;;4.15;100.00
47524;BME280;33253;42.144;25.884;2023-01-27T01:19:01;99727.72;;;4.02;100.00
47524;BME280;33253;42.144;25.884;2023-01-27T01:21:26;99709.28;;;3.91;100.00
47524;BME280;33253;42.144;25.884;2023-01-27T01:23:52;99753.50;;;4.07;100.00
47524;BME280;33253;42.144;25.884;2023-01-27T01:26:17;99766.03;;;4.02;100.00
47524;BME280;33253;42.144;25.884;2023-01-27T01:28:44;99746.72;;;3.91;100.00
47524;BME280;33253;42.144;25.884;2023-01-27T01:31:12;99738.69;;;3.83;100.00
47524;BME280;33253;42.144;25.884;2023-01-27T01:33:38;99723.56;;;3.71;100.00
47524;BME280;33253;42.144;25.884;2023-01-27T01:36:08;99709.31;;;3.58;100.00
47524;BME280;33253;42.144;25.884;2023-01-27T01:38:33;99731.50;;;3.76;100.00
47524;BME280;33253;42.144;25.884;2023-01-27T01:40:59;99721.59;;;3.65;100.00
47524;BME280;33253;42.144;25.884;2023-01-27T01:43:25;99688.63;;;3.53;100.00
47524;BME280;33253;42.144;25.884;2023-01-27T01:45:59;99680.44;;;3.59;100.00
47524;BME280;33253;42.144;25.884;2023-01-27T01:48:32;99685.44;;;3.58;100.00
47524;BME280;33253;42.144;25.884;2023-01-27T01:54:00;99682.66;;;3.69;100.00
47524;BME280;33253;42.144;25.884;2023-01-27T01:56:34;99654.81;;;3.58;100.00
47524;BME280;33253;42.144;25.884;2023-01-27T01:59:04;99679.72;;;3.78;100.00
47524;BME280;33253;42.144;25.884;2023-01-27T02:01:30;99675.63;;;3.82;100.00
47524;BME280;33253;42.144;25.884;2023-01-27T02:03:59;99692.72;;;3.83;100.00
47524;BME280;33253;42.144;25.884;2023-01-27T02:06:27;99695.75;;;3.76;100.00
47524;BME280;33253;42.144;25.884;2023-01-27T02:08:53;99707.22;;;3.67;100.00
47524;BME280;33253;42.144;25.884;2023-01-27T02:11:19;99676.19;;;3.43;100.00
47524;BME280;33253;42.144;25.884;2023-01-27T02:13:45;99689.69;;;3.57;100.00
47524;BME280;33253;42.144;25.884;2023-01-27T02:16:11;99685.53;;;3.59;100.00
47524;BME280;33253;42.144;25.884;2023-01-27T02:18:39;99621.25;;;3.33;100.00
47524;BME280;33253;42.144;25.884;2023-01-27T02:21:04;99657.22;;;3.54;100.00
47524;BME280;33253;42.144;25.884;2023-01-27T02:23:57;99677.47;;;3.51;100.00
47524;BME280;33253;42.144;25.884;2023-01-27T02:26:29;99677.78;;;3.58;100.00
47524;BME280;33253;42.144;25.884;2023-01-27T02:29:02;99666.06;;;3.61;100.00
47524;BME280;33253;42.144;25.884;2023-01-27T02:31:28;99662.56;;;3.59;100.00
47524;BME280;33253;42.144;25.884;2023-01-27T02:33:59;99660.97;;;3.61;100.00
47524;BME280;33253;42.144;25.884;2023-01-27T02:36:29;99659.44;;;3.65;100.00
47524;BME280;33253;42.144;25.884;2023-01-27T02:38:57;99660.09;;;3.61;100.00
47524;BME280;33253;42.144;25.884;2023-01-27T02:41:33;99676.59;;;3.67;100.00
47524;BME280;33253;42.144;25.884;2023-01-27T02:43:59;99671.75;;;3.55;100.00
47524;BME280;33253;42.144;25.884;2023-01-27T02:46:25;99682.19;;;3.60;100.00
47524;BME280;33253;42.144;25.884;2023-01-27T02:48:50;99645.09;;;3.34;100.00
47524;BME280;33253;42.144;25.884;2023-01-27T02:51:16;99635.59;;;3.31;100.00
47524;BME280;33253;42.144;25.884;2023-01-27T02:53:42;99622.63;;;3.27;100.00
47524;BME280;33253;42.144;25.884;2023-01-27T02:56:08;99676.13;;;3.58;100.00
47524;BME280;33253;42.144;25.884;2023-01-27T02:58:33;99681.69;;;3.51;100.00
47524;BME280;33253;42.144;25.884;2023-01-27T03:00:59;99679.72;;;3.45;100.00
47524;BME280;33253;42.144;25.884;2023-01-27T03:03:27;99688.78;;;3.40;100.00
47524;BME280;33253;42.144;25.884;2023-01-27T03:05:52;99677.38;;;3.33;100.00
47524;BME280;33253;42.144;25.884;2023-01-27T03:08:18;99688.78;;;3.40;100.00
47524;BME280;33253;42.144;25.884;2023-01-27T03:10:48;99692.06;;;3.37;100.00
47524;BME280;33253;42.144;25.884;2023-01-27T03:13:14;99679.88;;;3.32;100.00
47524;BME280;33253;42.144;25.884;2023-01-27T03:15:39;99691.13;;;3.35;100.00
47524;BME280;33253;42.144;25.884;2023-01-27T03:18:23;99660.19;;;3.29;100.00
47524;BME280;33253;42.144;25.884;2023-01-27T03:20:49;99668.22;;;3.37;100.00
47524;BME280;33253;42.144;25.884;2023-01-27T03:23:18;99683.59;;;3.38;100.00
47524;BME280;33253;42.144;25.884;2023-01-27T03:25:45;99689.50;;;3.37;100.00
47524;BME280;33253;42.144;25.884;2023-01-27T03:28:12;99675.31;;;3.43;100.00
47524;BME280;33253;42.144;25.884;2023-01-27T03:30:38;99658.50;;;3.46;100.00
47524;BME280;33253;42.144;25.884;2023-01-27T03:33:04;99580.41;;;3.00;100.00
47524;BME280;33253;42.144;25.884;2023-01-27T03:35:31;99656.25;;;3.52;100.00
47524;BME280;33253;42.144;25.884;2023-01-27T03:38:04;99658.09;;;3.55;100.00
47524;BME280;33253;42.144;25.884;2023-01-27T03:40:48;99634.97;;;3.52;100.00
47524;BME280;33253;42.144;25.884;2023-01-27T03:43:32;99631.94;;;3.43;100.00
47524;BME280;33253;42.144;25.884;2023-01-27T03:46:16;99652.19;;;3.56;100.00
47524;BME280;33253;42.144;25.884;2023-01-27T03:48:49;99633.94;;;3.48;100.00
47524;BME280;33253;42.144;25.884;2023-01-27T03:51:16;99638.00;;;3.61;100.00
47524;BME280;33253;42.144;25.884;2023-01-27T03:53:41;99646.28;;;3.57;100.00
47524;BME280;33253;42.144;25.884;2023-01-27T03:56:07;99656.44;;;3.55;100.00
47524;BME280;33253;42.144;25.884;2023-01-27T03:58:34;99658.19;;;3.56;100.00
47524;BME280;33253;42.144;25.884;2023-01-27T04:01:06;99649.72;;;3.58;100.00
47524;BME280;33253;42.144;25.884;2023-01-27T04:03:34;99609.38;;;3.34;100.00
47524;BME280;33253;42.144;25.884;2023-01-27T04:06:27;99628.84;;;3.48;100.00
47524;BME280;33253;42.144;25.884;2023-01-27T04:09:16;99645.66;;;3.45;100.00
47524;BME280;33253;42.144;25.884;2023-01-27T04:11:43;99601.72;;;3.17;100.00
47524;BME280;33253;42.144;25.884;2023-01-27T04:14:39;99612.91;;;3.19;100.00
47524;BME280;33253;42.144;25.884;2023-01-27T04:17:16;99647.56;;;3.32;100.00
47524;BME280;33253;42.144;25.884;2023-01-27T04:19:42;99652.13;;;3.38;100.00
47524;BME280;33253;42.144;25.884;2023-01-27T04:22:09;99629.56;;;3.29;100.00
47524;BME280;33253;42.144;25.884;2023-01-27T04:24:35;99601.91;;;3.20;100.00
47524;BME280;33253;42.144;25.884;2023-01-27T04:27:04;99630.09;;;3.40;100.00
47524;BME280;33253;42.144;25.884;2023-01-27T04:29:35;99613.38;;;3.45;100.00
47524;BME280;33253;42.144;25.884;2023-01-27T04:32:01;99595.00;;;3.52;100.00
47524;BME280;33253;42.144;25.884;2023-01-27T04:34:28;99591.84;;;3.56;100.00
47524;BME280;33253;42.144;25.884;2023-01-27T04:36:55;99584.81;;;3.52;100.00
47524;BME280;33253;42.144;25.884;2023-01-27T04:39:20;99586.66;;;3.38;100.00
47524;BME280;33253;42.144;25.884;2023-01-27T04:41:47;99589.13;;;3.37;100.00
47524;BME280;33253;42.144;25.884;2023-01-27T04:44:14;99597.81;;;3.40;100.00
47524;BME280;33253;42.144;25.884;2023-01-27T04:46:39;99609.28;;;3.49;100.00
47524;BME280;33253;42.144;25.884;2023-01-27T04:49:05;99565.13;;;3.33;100.00
47524;BME280;33253;42.144;25.884;2023-01-27T04:51:31;99597.81;;;3.57;100.00
47524;BME280;33253;42.144;25.884;2023-01-27T04:53:57;99601.47;;;3.62;100.00
47524;BME280;33253;42.144;25.884;2023-01-27T04:58:54;99610.88;;;3.63;100.00
47524;BME280;33253;42.144;25.884;2023-01-27T05:01:21;99610.75;;;3.60;100.00
47524;BME280;33253;42.144;25.884;2023-01-27T05:03:47;99604.75;;;3.60;100.00
47524;BME280;33253;42.144;25.884;2023-01-27T05:06:13;99608.25;;;3.62;100.00
47524;BME280;33253;42.144;25.884;2023-01-27T05:08:38;99610.56;;;3.57;100.00
47524;BME280;33253;42.144;25.884;2023-01-27T05:11:04;99615.19;;;3.64;100.00
47524;BME280;33253;42.144;25.884;2023-01-27T05:13:29;99605.03;;;3.66;100.00
47524;BME280;33253;42.144;25.884;2023-01-27T05:18:29;99536.31;;;3.18;100.00
47524;BME280;33253;42.144;25.884;2023-01-27T05:20:58;99599.06;;;3.49;100.00
47524;BME280;33253;42.144;25.884;2023-01-27T05:23:24;99627.97;;;3.48;100.00
47524;BME280;33253;42.144;25.884;2023-01-27T05:26:09;99637.34;;;3.49;100.00
47524;BME280;33253;42.144;25.884;2023-01-27T05:28:43;99628.84;;;3.48;100.00
47524;BME280;33253;42.144;25.884;2023-01-27T05:31:15;99627.72;;;3.43;100.00
47524;BME280;33253;42.144;25.884;2023-01-27T05:33:43;99603.94;;;3.28;100.00
47524;BME280;33253;42.144;25.884;2023-01-27T05:36:11;99561.31;;;2.92;100.00
47524;BME280;33253;42.144;25.884;2023-01-27T05:38:37;99617.34;;;2.90;100.00
47524;BME280;33253;42.144;25.884;2023-01-27T05:41:04;99632.44;;;2.87;100.00
47524;BME280;33253;42.144;25.884;2023-01-27T05:43:32;99632.78;;;2.94;100.00
47524;BME280;33253;42.144;25.884;2023-01-27T05:46:07;99651.03;;;3.01;100.00
47524;BME280;33253;42.144;25.884;2023-01-27T05:48:34;99625.72;;;3.04;100.00
47524;BME280;33253;42.144;25.884;2023-01-27T05:51:00;99628.66;;;3.12;100.00
47524;BME280;33253;42.144;25.884;2023-01-27T05:53:46;99635.28;;;3.08;100.00
47524;BME280;33253;42.144;25.884;2023-01-27T05:56:15;99633.69;;;3.11;100.00
47524;BME280;33253;42.144;25.884;2023-01-27T05:58:41;99628.66;;;3.12;100.00
47524;BME280;33253;42.144;25.884;2023-01-27T06:01:08;99615.19;;;2.98;100.00
47524;BME280;33253;42.144;25.884;2023-01-27T06:03:35;99628.47;;;2.92;100.00
47524;BME280;33253;42.144;25.884;2023-01-27T06:06:00;99632.44;;;2.87;100.00
47524;BME280;33253;42.144;25.884;2023-01-27T06:08:26;99621.59;;;2.75;100.00
47524;BME280;33253;42.144;25.884;2023-01-27T06:10:52;99663.97;;;3.04;100.00
47524;BME280;33253;42.144;25.884;2023-01-27T06:13:20;99664.22;;;3.09;100.00
47524;BME280;33253;42.144;25.884;2023-01-27T06:15:47;99672.09;;;3.14;100.00
47524;BME280;33253;42.144;25.884;2023-01-27T06:18:14;99661.75;;;3.11;100.00
47524;BME280;33253;42.144;25.884;2023-01-27T06:20:40;99669.53;;;3.14;100.00
47524;BME280;33253;42.144;25.884;2023-01-27T06:23:07;99651.63;;;3.12;100.00
47524;BME280;33253;42.144;25.884;2023-01-27T06:25:38;99666.38;;;3.18;100.00
47524;BME280;33253;42.144;25.884;2023-01-27T06:28:05;99638.84;;;2.96;100.00
47524;BME280;33253;42.144;25.884;2023-01-27T06:30:30;99683.91;;;3.12;100.00
47524;BME280;33253;42.144;25.884;2023-01-27T06:32:56;99673.25;;;3.04;100.00
47524;BME280;33253;42.144;25.884;2023-01-27T06:35:22;99662.41;;;2.91;100.00
47524;BME280;33253;42.144;25.884;2023-01-27T06:37:48;99642.88;;;2.75;100.00
47524;BME280;33253;42.144;25.884;2023-01-27T06:40:16;99636.88;;;2.75;100.00
47524;BME280;33253;42.144;25.884;2023-01-27T06:42:42;99669.84;;;3.03;100.00
47524;BME280;33253;42.144;25.884;2023-01-27T06:45:10;99669.94;;;3.05;100.00
47524;BME280;33253;42.144;25.884;2023-01-27T06:47:36;99676.25;;;3.12;100.00
47524;BME280;33253;42.144;25.884;2023-01-27T06:50:01;99660.38;;;3.01;100.00
47524;BME280;33253;42.144;25.884;2023-01-27T06:52:27;99666.06;;;3.12;100.00
47524;BME280;33253;42.144;25.884;2023-01-27T06:54:52;99659.34;;;3.14;100.00
47524;BME280;33253;42.144;25.884;2023-01-27T06:57:17;99654.03;;;3.26;100.00
47524;BME280;33253;42.144;25.884;2023-01-27T06:59:43;99601.97;;;3.05;100.00
47524;BME280;33253;42.144;25.884;2023-01-27T07:02:11;99648.69;;;3.37;100.00
47524;BME280;33253;42.144;25.884;2023-01-27T07:04:37;99647.97;;;3.40;100.00
47524;BME280;33253;42.144;25.884;2023-01-27T07:07:02;99634.72;;;3.47;100.00
47524;BME280;33253;42.144;25.884;2023-01-27T07:09:28;99620.72;;;3.39;100.00
47524;BME280;33253;42.144;25.884;2023-01-27T07:11:53;99573.19;;;3.08;100.00
47524;BME280;33253;42.144;25.884;2023-01-27T07:14:19;99625.81;;;3.39;100.00
47524;BME280;33253;42.144;25.884;2023-01-27T07:16:44;99633.06;;;3.48;100.00
47524;BME280;33253;42.144;25.884;2023-01-27T07:19:10;99622.78;;;3.30;100.00
47524;BME280;33253;42.144;25.884;2023-01-27T07:21:37;99621.00;;;3.12;100.00
47524;BME280;33253;42.144;25.884;2023-01-27T07:24:03;99634.56;;;3.28;100.00
47524;BME280;33253;42.144;25.884;2023-01-27T07:26:29;99614.66;;;3.20;100.00
47524;BME280;33253;42.144;25.884;2023-01-27T07:28:55;99630.50;;;3.31;100.00
47524;BME280;33253;42.144;25.884;2023-01-27T07:31:20;99637.03;;;3.43;100.00
47524;BME280;33253;42.144;25.884;2023-01-27T07:33:46;99639.50;;;3.41;100.00
47524;BME280;33253;42.144;25.884;2023-01-27T07:36:12;99638.31;;;3.34;100.00
47524;BME280;33253;42.144;25.884;2023-01-27T07:38:38;99633.53;;;3.40;100.00
47524;BME280;33253;42.144;25.884;2023-01-27T07:41:04;99598.69;;;3.24;100.00
47524;BME280;33253;42.144;25.884;2023-01-27T07:43:31;99621.59;;;3.39;100.00
47524;BME280;33253;42.144;25.884;2023-01-27T07:45:56;99620.22;;;3.30;100.00
47524;BME280;33253;42.144;25.884;2023-01-27T07:48:22;99612.00;;;3.19;100.00
47524;BME280;33253;42.144;25.884;2023-01-27T07:50:48;99613.03;;;3.06;100.00
47524;BME280;33253;42.144;25.884;2023-01-27T07:53:14;99607.53;;;2.98;100.00
47524;BME280;33253;42.144;25.884;2023-01-27T07:55:39;99599.88;;;2.98;100.00
47524;BME280;33253;42.144;25.884;2023-01-27T07:58:05;99608.13;;;3.09;100.00
47524;BME280;33253;42.144;25.884;2023-01-27T08:00:31;99601.66;;;3.16;100.00
47524;BME280;33253;42.144;25.884;2023-01-27T08:02:58;99604.59;;;3.23;100.00
47524;BME280;33253;42.144;25.884;2023-01-27T08:05:24;99604.91;;;3.30;100.00
47524;BME280;33253;42.144;25.884;2023-01-27T08:07:50;99598.06;;;3.29;100.00
47524;BME280;33253;42.144;25.884;2023-01-27T08:10:16;99593.19;;;3.33;100.00
47524;BME280;33253;42.144;25.884;2023-01-27T08:12:43;99602.38;;;3.30;100.00
47524;BME280;33253;42.144;25.884;2023-01-27T08:15:10;99566.66;;;2.97;100.00
47524;BME280;33253;42.144;25.884;2023-01-27T08:17:36;99595.44;;;3.11;100.00
47524;BME280;33253;42.144;25.884;2023-01-27T08:20:02;99574.53;;;3.01;100.00
47524;BME280;33253;42.144;25.884;2023-01-27T08:22:28;99590.16;;;3.07;100.00
47524;BME280;33253;42.144;25.884;2023-01-27T08:24:54;99600.75;;;3.15;100.00
47524;BME280;33253;42.144;25.884;2023-01-27T08:27:19;99588.97;;;3.01;100.00
47524;BME280;33253;42.144;25.884;2023-01-27T08:29:45;99582.97;;;3.00;100.00
47524;BME280;33253;42.144;25.884;2023-01-27T08:32:11;99593.81;;;3.13;100.00
47524;BME280;33253;42.144;25.884;2023-01-27T08:34:37;99598.22;;;3.15;100.00
47524;BME280;33253;42.144;25.884;2023-01-27T08:37:03;99597.19;;;3.28;100.00
47524;BME280;33253;42.144;25.884;2023-01-27T08:39:30;99597.81;;;3.40;100.00
47524;BME280;33253;42.144;25.884;2023-01-27T08:41:55;99592.34;;;3.33;100.00
47524;BME280;33253;42.144;25.884;2023-01-27T08:44:22;99607.38;;;3.45;100.00
47524;BME280;33253;42.144;25.884;2023-01-27T08:46:48;99531.91;;;2.99;100.00
47524;BME280;33253;42.144;25.884;2023-01-27T08:49:14;99604.50;;;3.38;100.00
47524;BME280;33253;42.144;25.884;2023-01-27T08:51:41;99600.06;;;3.34;100.00
47524;BME280;33253;42.144;25.884;2023-01-27T08:54:06;99605.78;;;3.47;100.00
47524;BME280;33253;42.144;25.884;2023-01-27T08:56:32;99592.25;;;3.48;100.00
47524;BME280;33253;42.144;25.884;2023-01-27T08:58:58;99597.34;;;3.48;100.00
47524;BME280;33253;42.144;25.884;2023-01-27T09:01:24;99589.69;;;3.48;100.00
47524;BME280;33253;42.144;25.884;2023-01-27T09:03:49;99586.91;;;3.43;100.00
47524;BME280;33253;42.144;25.884;2023-01-27T09:06:15;99595.00;;;3.52;100.00
47524;BME280;33253;42.144;25.884;2023-01-27T09:08:42;99590.94;;;3.56;100.00
47524;BME280;33253;42.144;25.884;2023-01-27T09:11:13;99592.16;;;3.63;100.00
47524;BME280;33253;42.144;25.884;2023-01-27T09:13:39;99585.34;;;3.63;100.00
47524;BME280;33253;42.144;25.884;2023-01-27T09:16:05;99464.50;;;2.94;100.00
47524;BME280;33253;42.144;25.884;2023-01-27T09:18:31;99585.66;;;3.69;100.00
47524;BME280;33253;42.144;25.884;2023-01-27T09:20:57;99578.56;;;3.64;100.00
47524;BME280;33253;42.144;25.884;2023-01-27T09:23:22;99582.94;;;3.66;100.00
47524;BME280;33253;42.144;25.884;2023-01-27T09:25:48;99591.81;;;3.73;100.00
47524;BME280;33253;42.144;25.884;2023-01-27T09:28:14;99583.41;;;3.76;100.00
47524;BME280;33253;42.144;25.884;2023-01-27T09:30:43;99581.25;;;3.83;100.00
47524;BME280;33253;42.144;25.884;2023-01-27T09:33:10;99583.00;;;3.84;100.00
47524;BME280;33253;42.144;25.884;2023-01-27T09:35:47;99572.91;;;3.87;100.00
47524;BME280;33253;42.144;25.884;2023-01-27T09:38:18;99576.94;;;3.82;100.00
47524;BME280;33253;42.144;25.884;2023-01-27T10:17:03;99479.72;;;3.78;100.00
47524;BME280;33253;42.144;25.884;2023-01-27T10:27:34;99410.97;;;3.46;100.00
47524;BME280;33253;42.144;25.884;2023-01-27T10:30:12;99472.19;;;3.81;100.00
47524;BME280;33253;42.144;25.884;2023-01-27T10:32:50;99460.16;;;3.78;100.00
47524;BME280;33253;42.144;25.884;2023-01-27T10:35:48;99491.44;;;4.10;100.00
47524;BME280;33253;42.144;25.884;2023-01-27T10:40:51;99500.56;;;3.87;100.00
47524;BME280;33253;42.144;25.884;2023-01-27T10:46:34;99482.41;;;3.81;100.00
47524;BME280;33253;42.144;25.884;2023-01-27T10:49:11;99488.59;;;3.86;100.00
47524;BME280;33253;42.144;25.884;2023-01-27T10:51:51;99484.66;;;3.75;100.00
47524;BME280;33253;42.144;25.884;2023-01-27T10:54:57;99472.75;;;3.57;100.00
47524;BME280;33253;42.144;25.884;2023-01-27T10:57:37;99454.03;;;3.56;100.00
47524;BME280;33253;42.144;25.884;2023-01-27T11:00:41;99455.75;;;3.58;100.00
47524;BME280;33253;42.144;25.884;2023-01-27T11:05:52;99418.38;;;3.58;100.00
47524;BME280;33253;42.144;25.884;2023-01-27T11:08:24;99436.38;;;3.79;100.00
47524;BME280;33253;42.144;25.884;2023-01-27T11:10:59;99442.22;;;3.77;100.00
47524;BME280;33253;42.144;25.884;2023-01-27T11:13:45;99413.34;;;3.78;100.00
47524;BME280;33253;42.144;25.884;2023-01-27T11:16:16;99432.56;;;3.71;100.00
47524;BME280;33253;42.144;25.884;2023-01-27T11:18:42;99429.09;;;3.69;100.00
47524;BME280;33253;42.144;25.884;2023-01-27T11:21:18;99398.47;;;3.69;100.00
47524;BME280;33253;42.144;25.884;2023-01-27T11:23:48;99434.63;;;3.96;100.00
47524;BME280;33253;42.144;25.884;2023-01-27T11:32:15;99394.78;;;3.82;100.00
47524;BME280;33253;42.144;25.884;2023-01-27T11:34:59;99443.50;;;4.04;100.00
47524;BME280;33253;42.144;25.884;2023-01-27T11:37:35;99440.88;;;4.03;100.00
47524;BME280;33253;42.144;25.884;2023-01-27T11:40:02;99437.97;;;3.95;100.00
47524;BME280;33253;42.144;25.884;2023-01-27T11:42:33;99436.34;;;3.97;100.00
47524;BME280;33253;42.144;25.884;2023-01-27T11:45:00;99433.31;;;3.86;100.00
47524;BME280;33253;42.144;25.884;2023-01-27T11:47:29;99376.84;;;3.62;100.00
47524;BME280;33253;42.144;25.884;2023-01-27T11:49:56;99269.09;;;2.94;100.00
47524;BME280;33253;42.144;25.884;2023-01-27T11:52:23;99434.97;;;3.86;100.00
47524;BME280;33253;42.144;25.884;2023-01-27T11:54:59;99429.06;;;3.87;100.00
47524;BME280;33253;42.144;25.884;2023-01-27T11:57:26;99392.53;;;3.52;100.00
47524;BME280;33253;42.144;25.884;2023-01-27T12:00:18;99430.31;;;3.77;100.00
47524;BME280;33253;42.144;25.884;2023-01-27T12:02:48;99415.72;;;3.75;100.00
47524;BME280;33253;42.144;25.884;2023-01-27T12:05:43;99419.59;;;3.84;100.00
47524;BME280;33253;42.144;25.884;2023-01-27T12:08:10;99429.94;;;3.87;100.00
47524;BME280;33253;42.144;25.884;2023-01-27T12:10:38;99422.28;;;3.87;100.00
47524;BME280;33253;42.144;25.884;2023-01-27T12:13:20;99422.38;;;3.89;100.00
47524;BME280;33253;42.144;25.884;2023-01-27T12:15:58;99425.56;;;3.85;100.00
47524;BME280;33253;42.144;25.884;2023-01-27T12:18:25;99422.22;;;3.86;100.00
47524;BME280;33253;42.144;25.884;2023-01-27T12:21:05;99421.97;;;3.99;100.00
47524;BME280;33253;42.144;25.884;2023-01-27T12:23:36;99412.56;;;3.98;100.00
47524;BME280;33253;42.144;25.884;2023-01-27T12:26:09;99422.19;;;4.04;100.00
47524;BME280;33253;42.144;25.884;2023-01-27T12:31:12;99421.75;;;3.95;100.00
47524;BME280;33253;42.144;25.884;2023-01-27T12:33:50;99394.56;;;3.95;100.00
47524;BME280;33253;42.144;25.884;2023-01-27T12:36:22;99388.16;;;3.85;100.00
47524;BME280;33253;42.144;25.884;2023-01-27T12:41:24;99432.25;;;4.19;100.00
47524;BME280;33253;42.144;25.884;2023-01-27T12:43:51;99433.44;;;4.27;100.00
47524;BME280;33253;42.144;25.884;2023-01-27T12:46:27;99415.38;;;4.23;100.00
47524;BME280;33253;42.144;25.884;2023-01-27T12:49:00;99421.00;;;4.15;100.00
47524;BME280;33253;42.144;25.884;2023-01-27T12:54:26;99431.38;;;4.38;100.00
47524;BME280;33253;42.144;25.884;2023-01-27T12:56:54;99421.91;;;4.35;100.00
47524;BME280;33253;42.144;25.884;2023-01-27T12:59:22;99427.75;;;4.33;100.00
47524;BME280;33253;42.144;25.884;2023-01-27T13:04:42;99422.72;;;4.34;100.00
47524;BME280;33253;42.144;25.884;2023-01-27T13:07:14;99418.41;;;4.33;100.00
47524;BME280;33253;42.144;25.884;2023-01-27T13:10:04;99419.47;;;4.38;100.00
47524;BME280;33253;42.144;25.884;2023-01-27T13:12:47;99422.31;;;4.45;100.00
47524;BME280;33253;42.144;25.884;2023-01-27T13:15:16;99416.53;;;4.49;100.00
47524;BME280;33253;42.144;25.884;2023-01-27T13:17:49;99411.44;;;4.49;100.00
47524;BME280;33253;42.144;25.884;2023-01-27T13:20:40;99432.28;;;4.58;100.00
47524;BME280;33253;42.144;25.884;2023-01-27T13:23:13;99424.53;;;4.57;100.00
47524;BME280;33253;42.144;25.884;2023-01-27T13:25:52;99442.03;;;4.67;100.00
47524;BME280;33253;42.144;25.884;2023-01-27T13:28:28;99432.13;;;4.75;100.00
47524;BME280;33253;42.144;25.884;2023-01-27T13:31:02;99429.78;;;4.79;100.00
47524;BME280;33253;42.144;25.884;2023-01-27T13:36:36;99434.34;;;4.86;100.00
47524;BME280;33253;42.144;25.884;2023-01-27T13:44:50;99433.75;;;4.92;100.00
47524;BME280;33253;42.144;25.884;2023-01-27T13:47:23;99431.31;;;4.95;100.00
47524;BME280;33253;42.144;25.884;2023-01-27T13:49:53;99430.50;;;4.96;100.00
47524;BME280;33253;42.144;25.884;2023-01-27T13:52:21;99435.75;;;4.99;100.00
47524;BME280;33253;42.144;25.884;2023-01-27T13:54:47;99435.84;;;5.01;100.00
47524;BME280;33253;42.144;25.884;2023-01-27T13:57:36;99445.16;;;5.00;100.00
47524;BME280;33253;42.144;25.884;2023-01-27T14:10:59;99441.22;;;4.88;100.00
47524;BME280;33253;42.144;25.884;2023-01-27T14:25:23;99443.09;;;4.92;100.00
47524;BME280;33253;42.144;25.884;2023-01-27T14:27:58;99411.63;;;4.73;100.00
47524;BME280;33253;42.144;25.884;2023-01-27T14:30:30;99444.16;;;4.97;100.00
47524;BME280;33253;42.144;25.884;2023-01-27T14:35:57;99445.59;;;4.90;100.00
47524;BME280;33253;42.144;25.884;2023-01-27T14:47:19;99445.84;;;4.96;100.00
47524;BME280;33253;42.144;25.884;2023-01-27T14:55:41;99443.78;;;5.07;100.00
47524;BME280;33253;42.144;25.884;2023-01-27T15:03:59;99460.03;;;4.90;100.00
47524;BME280;33253;42.144;25.884;2023-01-27T15:18:15;99456.84;;;4.94;100.00
47524;BME280;33253;42.144;25.884;2023-01-27T15:21:07;99468.47;;;4.87;100.00
47524;BME280;33253;42.144;25.884;2023-01-27T15:23:50;99470.16;;;4.86;100.00
47524;BME280;33253;42.144;25.884;2023-01-27T15:26:22;99465.56;;;4.99;100.00
47524;BME280;33253;42.144;25.884;2023-01-27T15:28:49;99465.78;;;5.04;100.00